Wootton Bassett, United Kingdom
Current Conditions -  °F | °C
As of 3:58 AM on Friday 28 Nov 2014 (Local Time) from EGVA Reporting Station
Overcast Overcast  
Wind Chill: 45°   Ceiling: 1800
Heat Index: 49°   Visibility: 6mi
Dew Point: 48°   Wind: 9mph
Humidity: 98%   Direction: 80°E
Pressure: 29.54"   Gusts: NA
Location:  51.54°N, 1.9°W
Report Text: EGVA 280358Z AUTO 08008KT 9999 OVC018 09/09 A2954 RMK AO2 SLP008 T00920089 $
Loading
Personal Weather Stations






























Interactive Weather Map New forecast layout! Learn more

10-Day Weather Forecast

Advertisements
Track Severe Weather on mobile